Seakay Spirit — WSNB — position and weather

sailwx.info

Track history (hours):
 
Tides and Currents Weather Stations Pressure Air Temp Water Temp Dewpoint Dewpoint Depression Visibility Wind Speed Wind Dir Waves Ship Positions

Seakay Spirit

Owner: K SHIP 3 LLC, Bala Cynwyd, PA. More information available from US FCC via Universal Licensing System and Coast Guard Vessel Documentation Center.

Last reported at 2018-Feb-17 19:29 UTC. Time now 2018-Feb-17 19:34 UTC.
Position N 27°47' W 096°53'.

Type: Ship. MMSI: 366238000.

Date/timePositionNaut miles runAvg speedWind from/ knotsBaromVisibWave heightAir tempDewpointWater temp
2018-Feb-17 19:29N 27°47' W 096°53'0 0.0
2018-Feb-17 18:59N 27°47' W 096°53'0 0.0
2018-Feb-17 18:29N 27°47' W 096°53'0 0.0
2018-Feb-17 18:00N 27°47' W 096°53'0 0.0
2018-Feb-17 17:30N 27°47' W 096°53'0 0.0
2018-Feb-17 16:59N 27°47' W 096°53'0 0.0
2018-Feb-17 16:29N 27°47' W 096°53'0 0.0
2018-Feb-17 15:58N 27°47' W 096°53'0 0.0
2018-Feb-17 15:30N 27°47' W 096°53'0 0.0
2018-Feb-17 14:59N 27°47' W 096°53'0 0.0
2018-Feb-17 14:28N 27°47' W 096°53'0 0.1
2018-Feb-17 14:00N 27°47' W 096°53'0 0.1
2018-Feb-17 13:30N 27°47' W 096°53'1 2.2
2018-Feb-17 13:00N 27°46' W 096°53'611.3
2018-Feb-17 12:30N 27°43' W 096°48'713.1
2018-Feb-17 12:00N 27°41' W 096°41'712.8
2018-Feb-17 11:29N 27°38' W 096°34'612.3
2018-Feb-17 10:58N 27°35' W 096°28'612.2
2018-Feb-17 10:29N 27°35' W 096°21'612.1
2018-Feb-17 09:59N 27°36' W 096°14'612.2
2018-Feb-17 09:29N 27°36' W 096°07'712.5
2018-Feb-17 08:58N 27°37' W 096°00'612.6
2018-Feb-17 08:31N 27°37' W 095°54'712.7
2018-Feb-17 08:00N 27°38' W 095°46'612.8
2018-Feb-17 07:31N 27°38' W 095°39'712.9
2018-Feb-17 07:00N 27°39' W 095°32'713.0
2018-Feb-17 06:28N 27°39' W 095°24'713.0
2018-Feb-17 05:56N 27°40' W 095°16'613.0
2018-Feb-17 05:30N 27°40' W 095°10'713.1
2018-Feb-17 05:00N 27°41' W 095°03'812.7
2018-Feb-17 04:22N 27°41' W 094°54'612.7
2018-Feb-17 03:56N 27°42' W 094°47'613.2
2018-Feb-17 03:27N 27°42' W 094°40'  
2018-Feb-11 17:33N 29°19' W 094°39'113.3
2018-Feb-11 17:28N 29°20' W 094°40'611.7
2018-Feb-11 16:57N 29°21' W 094°47'512.1
2018-Feb-11 16:30N 29°26' W 094°50'611.2
2018-Feb-11 15:59N 29°31' W 094°53'510.3
2018-Feb-11 15:29N 29°35' W 094°56'4 9.2
2018-Feb-11 15:00N 29°39' W 094°58'4 8.3
2018-Feb-11 14:29N 29°42' W 095°01'3 6.3
2018-Feb-11 13:59N 29°45' W 095°04'2 4.4
2018-Feb-11 13:30N 29°45' W 095°06'0 0.3
2018-Feb-11 13:00N 29°45' W 095°06'  
2018-Feb-09 03:00N 29°44' W 095°03'4 7.7
2018-Feb-09 02:30N 29°42' W 094°59'  
Track history (hours):
 
Tides and Currents Weather Stations Pressure Air Temp Water Temp Dewpoint Dewpoint Depression Visibility Wind Speed Wind Dir Waves Ship Positions

Seakay Spirit

Owner: K SHIP 3 LLC, Bala Cynwyd, PA. More information available from US FCC via Universal Licensing System and Coast Guard Vessel Documentation Center.

Last reported at 2018-Feb-17 19:29 UTC. Time now 2018-Feb-17 19:34 UTC.
Position N 27°47' W 096°53'.

Type: Ship. MMSI: 366238000.

Date/timePositionNaut miles runAvg speedWind from/ knotsBaromVisibWave heightAir tempDewpointWater temp
2018-Feb-17 19:29N 27°47' W 096°53'0 0.0
2018-Feb-17 18:59N 27°47' W 096°53'0 0.0
2018-Feb-17 18:29N 27°47' W 096°53'0 0.0
2018-Feb-17 18:00N 27°47' W 096°53'0 0.0
2018-Feb-17 17:30N 27°47' W 096°53'0 0.0
2018-Feb-17 16:59N 27°47' W 096°53'0 0.0
2018-Feb-17 16:29N 27°47' W 096°53'0 0.0
2018-Feb-17 15:58N 27°47' W 096°53'0 0.0
2018-Feb-17 15:30N 27°47' W 096°53'0 0.0
2018-Feb-17 14:59N 27°47' W 096°53'0 0.0
2018-Feb-17 14:28N 27°47' W 096°53'0 0.1
2018-Feb-17 14:00N 27°47' W 096°53'0 0.1
2018-Feb-17 13:30N 27°47' W 096°53'1 2.2
2018-Feb-17 13:00N 27°46' W 096°53'611.3
2018-Feb-17 12:30N 27°43' W 096°48'713.1
2018-Feb-17 12:00N 27°41' W 096°41'712.8
2018-Feb-17 11:29N 27°38' W 096°34'612.3
2018-Feb-17 10:58N 27°35' W 096°28'612.2
2018-Feb-17 10:29N 27°35' W 096°21'612.1
2018-Feb-17 09:59N 27°36' W 096°14'612.2
2018-Feb-17 09:29N 27°36' W 096°07'712.5
2018-Feb-17 08:58N 27°37' W 096°00'612.6
2018-Feb-17 08:31N 27°37' W 095°54'712.7
2018-Feb-17 08:00N 27°38' W 095°46'612.8
2018-Feb-17 07:31N 27°38' W 095°39'712.9
2018-Feb-17 07:00N 27°39' W 095°32'713.0
2018-Feb-17 06:28N 27°39' W 095°24'713.0
2018-Feb-17 05:56N 27°40' W 095°16'613.0
2018-Feb-17 05:30N 27°40' W 095°10'713.1
2018-Feb-17 05:00N 27°41' W 095°03'812.7
2018-Feb-17 04:22N 27°41' W 094°54'612.7
2018-Feb-17 03:56N 27°42' W 094°47'613.2
2018-Feb-17 03:27N 27°42' W 094°40'  
2018-Feb-11 17:33N 29°19' W 094°39'113.3
2018-Feb-11 17:28N 29°20' W 094°40'611.7
2018-Feb-11 16:57N 29°21' W 094°47'512.1
2018-Feb-11 16:30N 29°26' W 094°50'611.2
2018-Feb-11 15:59N 29°31' W 094°53'510.3
2018-Feb-11 15:29N 29°35' W 094°56'4 9.2
2018-Feb-11 15:00N 29°39' W 094°58'4 8.3
2018-Feb-11 14:29N 29°42' W 095°01'3 6.3
2018-Feb-11 13:59N 29°45' W 095°04'2 4.4
2018-Feb-11 13:30N 29°45' W 095°06'0 0.3
2018-Feb-11 13:00N 29°45' W 095°06'  
2018-Feb-09 03:00N 29°44' W 095°03'4 7.7
2018-Feb-09 02:30N 29°42' W 094°59'  

Dump ship's entire track history